Time;durP1;ratioP1;P1;durP2;ratioP2;P2;SDS_P1;SDS_P2;PMS_P1;PMS_P2;Temp;Humidity;BMP_temperature;BMP_pressure;BME280_temperature;BME280_humidity;BME280_pressure;Samples;Min_cycle;Max_cycle;Signal;HPM_P1;HPM_P2
2022/10/31 00:01:10;;;;;;;;;;;;;;;-144.99;100.00;52364.53;5059923;28;19928;-68
2022/10/31 00:03:36;;;;;;;;;;;;;;;-144.99;100.00;52366.56;5060778;28;19950;-68
2022/10/31 00:06:03;;;;;;;;;;;;;;;-144.99;100.00;52366.56;5062175;28;19966;-68
2022/10/31 00:08:31;;;;;;;;;;;;;;;-144.99;100.00;52350.25;5062694;28;19947;-79
2022/10/31 00:10:57;;;;;;;;;;;;;;;-144.99;100.00;52346.19;5063213;28;20019;-70
2022/10/31 00:13:24;;;;;;;;;;;;;;;-144.99;100.00;52384.91;5064285;28;20280;-70
2022/10/31 00:15:50;;;;;;;;;;;;;;;-144.99;100.00;52376.75;5069103;28;20218;-68
2022/10/31 00:18:17;;;;;;;;;;;;;;;-144.99;100.00;52395.09;5070769;28;19939;-66
2022/10/31 00:20:43;;;;;;;;;;;;;;;-144.99;100.00;52374.72;5064738;28;20313;-71
2022/10/31 00:23:10;;;;;;;;;;;;;;;-144.99;100.00;52350.25;5060121;28;20075;-70
2022/10/31 00:25:38;;;;;;;;;;;;;;;-144.99;100.00;52364.53;5064674;28;19962;-70
2022/10/31 00:28:06;;;;;;;;;;;;;;;-144.99;100.00;52342.09;5064083;28;19952;-70
2022/10/31 00:30:32;;;;;;;;;;;;;;;-144.99;100.00;52346.19;5073518;28;20058;-71
2022/10/31 00:32:59;;;;;;;;;;;;;;;-144.99;100.00;52382.88;5080864;28;19924;-71
2022/10/31 00:35:25;;;;;;;;;;;;;;;-144.99;100.00;52395.09;5070967;28;19934;-72
2022/10/31 00:37:53;;;;;;;;;;;;;;;-144.99;100.00;52374.72;5062789;28;19956;-70
2022/10/31 00:40:19;;;;;;;;;;;;;;;-144.99;100.00;52344.16;5062397;28;20200;-71
2022/10/31 00:42:47;;;;;;;;;;;;;;;-144.99;100.00;52319.69;5064299;28;19971;-71
2022/10/31 00:45:13;;;;;;;;;;;;;;;-144.99;100.00;52376.75;5058698;28;19945;-72
2022/10/31 00:47:40;;;;;;;;;;;;;;;-144.99;100.00;52325.81;5061175;28;20033;-70
2022/10/31 00:50:07;;;;;;;;;;;;;;;-144.99;100.00;52338.03;5066297;28;19960;-70
2022/10/31 00:52:33;;;;;;;;;;;;;;;-144.99;100.00;52311.53;5066321;28;19942;-72
2022/10/31 00:55:00;;;;;;;;;;;;;;;-144.99;100.00;52313.56;5067247;28;19942;-70
2022/10/31 00:57:26;;;;;;;;;;;;;;;-144.99;100.00;52374.72;5058976;28;19953;-66
2022/10/31 00:59:54;;;;;;;;;;;;;;;-144.99;100.00;52382.88;5058995;28;19936;-67
2022/10/31 01:02:20;;;;;;;;;;;;;;;-144.99;100.00;52382.88;5053015;28;19945;-66
2022/10/31 01:04:46;;;;;;;;;;;;;;;-144.99;100.00;52370.63;5057868;28;20068;-66
2022/10/31 01:07:13;;;;;;;;;;;;;;;-144.99;100.00;52360.44;5061038;28;19955;-65
2022/10/31 01:09:40;;;;;;;;;;;;;;;-144.99;100.00;52399.19;5061323;28;20418;-66
2022/10/31 01:12:07;;;;;;;;;;;;;;;-144.99;100.00;52370.63;5061825;28;20356;-65
2022/10/31 01:14:33;;;;;;;;;;;;;;;-144.99;100.00;52370.63;5063554;28;19963;-67
2022/10/31 01:17:01;;;;;;;;;;;;;;;-144.99;100.00;52399.19;5062891;28;20148;-65
2022/10/31 01:19:27;;;;;;;;;;;;;;;-144.99;100.00;52391.03;5063641;28;19946;-66
2022/10/31 01:21:54;;;;;;;;;;;;;;;-144.99;100.00;52354.34;5058686;28;19965;-66
2022/10/31 01:24:21;;;;;;;;;;;;;;;-144.99;100.00;52370.63;5062648;28;20098;-71
2022/10/31 01:26:47;;;;;;;;;;;;;;;-144.99;100.00;52350.25;5064406;28;19958;-74
2022/10/31 01:29:14;;;;;;;;;;;;;;;-144.99;100.00;52376.75;5067394;28;20030;-74
2022/10/31 01:31:40;;;;;;;;;;;;;;;-144.99;100.00;52370.63;5066097;28;20048;-74
2022/10/31 01:34:08;;;;;;;;;;;;;;;-144.99;100.00;52358.41;5066893;28;20035;-73
2022/10/31 01:36:36;;;;;;;;;;;;;;;-144.99;100.00;52409.38;5061348;28;19939;-71
2022/10/31 01:39:04;;;;;;;;;;;;;;;-144.99;100.00;52333.94;5060875;28;19943;-70
2022/10/31 01:41:32;;;;;;;;;;;;;;;-144.99;100.00;52362.50;5063734;28;19956;-70
2022/10/31 01:43:59;;;;;;;;;;;;;;;-144.99;100.00;52321.72;5061527;28;19932;-70
2022/10/31 01:46:28;;;;;;;;;;;;;;;-144.99;100.00;52311.53;5064203;28;19965;-71
2022/10/31 01:48:56;;;;;;;;;;;;;;;-144.99;100.00;52372.69;5064087;28;19935;-69
2022/10/31 01:51:26;;;;;;;;;;;;;;;-144.99;100.00;52370.63;5072938;28;19981;-70
2022/10/31 01:53:55;;;;;;;;;;;;;;;-144.99;100.00;52391.03;5067323;28;19985;-70
2022/10/31 01:56:22;;;;;;;;;;;;;;;-144.99;100.00;52364.53;5068720;28;20041;-71
2022/10/31 01:58:49;;;;;;;;;;;;;;;-144.99;100.00;52374.72;5067027;28;20405;-71
2022/10/31 02:01:17;;;;;;;;;;;;;;;-144.99;100.00;52372.69;5069015;28;19989;-70
2022/10/31 02:03:43;;;;;;;;;;;;;;;-144.99;100.00;52358.41;5070963;28;19961;-70
2022/10/31 02:06:16;;;;;;;;;;;;;;;-144.99;100.00;52395.09;5067440;28;19966;-70
2022/10/31 02:08:44;;;;;;;;;;;;;;;-144.99;100.00;52350.25;5067989;28;20183;-68
2022/10/31 02:11:11;;;;;;;;;;;;;;;-144.99;100.00;52362.50;5069969;28;19958;-67
2022/10/31 02:13:37;;;;;;;;;;;;;;;-144.99;100.00;52342.09;5064417;28;19962;-67
2022/10/31 02:16:04;;;;;;;;;;;;;;;-144.99;100.00;52386.94;5070116;28;20477;-67
2022/10/31 02:18:31;;;;;;;;;;;;;;;-144.99;100.00;52331.91;5069217;28;20645;-67
2022/10/31 02:21:05;;;;;;;;;;;;;;;-144.99;100.00;52321.72;5074770;28;20385;-68
2022/10/31 02:23:46;;;;;;;;;;;;;;;-144.99;100.00;52374.72;5059773;28;19942;-68
2022/10/31 02:26:26;;;;;;;;;;;;;;;-144.99;100.00;52368.59;5069348;28;20163;-67
2022/10/31 02:29:12;;;;;;;;;;;;;;;-144.99;100.00;52372.69;5070889;28;19928;-66
2022/10/31 02:31:43;;;;;;;;;;;;;;;-144.99;100.00;52329.88;5076933;28;19959;-68
2022/10/31 02:34:15;;;;;;;;;;;;;;;-144.99;100.00;52395.09;5062281;28;19963;-67
2022/10/31 02:36:44;;;;;;;;;;;;;;;-144.99;100.00;52344.16;5067083;28;19932;-69
2022/10/31 02:39:13;;;;;;;;;;;;;;;-144.99;100.00;52358.41;5074447;28;19962;-69
2022/10/31 02:41:46;;;;;;;;;;;;;;;-144.99;100.00;52366.56;5064970;28;20041;-70
2022/10/31 02:44:16;;;;;;;;;;;;;;;-144.99;100.00;52368.59;5071706;28;19956;-69
2022/10/31 02:46:48;;;;;;;;;;;;;;;-144.99;100.00;52342.09;5067157;28;19947;-70
2022/10/31 02:49:19;;;;;;;;;;;;;;;-144.99;100.00;52338.03;5068635;28;20362;-71
2022/10/31 02:51:46;;;;;;;;;;;;;;;-144.99;100.00;52350.25;5068630;28;19962;-70
2022/10/31 02:54:18;;;;;;;;;;;;;;;-144.99;100.00;52374.72;5066100;28;19942;-70
2022/10/31 02:56:45;;;;;;;;;;;;;;;-144.99;100.00;52354.34;5067732;28;19939;-69
2022/10/31 02:59:11;;;;;;;;;;;;;;;-144.99;100.00;52333.94;5062764;28;19952;-69
2022/10/31 03:01:45;;;;;;;;;;;;;;;-144.99;100.00;52317.66;5060250;28;19955;-75
2022/10/31 03:04:26;;;;;;;;;;;;;;;-144.99;100.00;52340.06;5075240;28;20261;-70
2022/10/31 03:06:58;;;;;;;;;;;;;;;-144.99;100.00;52370.63;5067148;28;19966;-70
2022/10/31 03:09:27;;;;;;;;;;;;;;;-144.99;100.00;52374.72;5065981;28;19970;-71
2022/10/31 03:11:58;;;;;;;;;;;;;;;-144.99;100.00;52366.56;5064766;28;20040;-71
2022/10/31 03:14:27;;;;;;;;;;;;;;;-144.99;100.00;52403.25;4716151;28;10000266;-71
2022/10/31 03:16:56;;;;;;;;;;;;;;;-144.99;100.00;52352.28;5070103;28;19938;-71
2022/10/31 03:19:25;;;;;;;;;;;;;;;-144.99;100.00;52370.63;5064904;28;20220;-70
2022/10/31 03:21:54;;;;;;;;;;;;;;;-144.99;100.00;52370.63;5067333;28;19962;-73
2022/10/31 03:24:23;;;;;;;;;;;;;;;-144.99;100.00;52374.72;5067741;28;20408;-74
2022/10/31 03:26:52;;;;;;;;;;;;;;;-144.99;100.00;52362.50;5073014;28;19969;-68
2022/10/31 03:29:21;;;;;;;;;;;;;;;-144.99;100.00;52360.44;5069711;28;20045;-68
2022/10/31 03:31:50;;;;;;;;;;;;;;;-144.99;100.00;52354.34;5069814;28;19956;-67
2022/10/31 03:34:18;;;;;;;;;;;;;;;-144.99;100.00;52340.06;5071578;28;19942;-68
2022/10/31 03:36:46;;;;;;;;;;;;;;;-144.99;100.00;52350.25;5068640;28;19948;-68
2022/10/31 03:39:14;;;;;;;;;;;;;;;-144.99;100.00;52350.25;5067274;28;19943;-68
2022/10/31 03:41:47;;;;;;;;;;;;;;;-144.99;100.00;52378.78;5067414;28;20074;-68
2022/10/31 03:44:17;;;;;;;;;;;;;;;-144.99;100.00;52370.63;5068071;28;19934;-74
2022/10/31 03:46:45;;;;;;;;;;;;;;;-144.99;100.00;52407.31;5068290;28;19951;-74
2022/10/31 03:49:12;;;;;;;;;;;;;;;-144.99;100.00;52370.63;5068354;28;19946;-74
2022/10/31 03:51:44;;;;;;;;;;;;;;;-144.99;100.00;52378.78;5074642;28;19950;-75
2022/10/31 03:54:14;;;;;;;;;;;;;;;-144.99;100.00;52391.03;5068525;28;19962;-72
2022/10/31 03:56:42;;;;;;;;;;;;;;;-144.99;100.00;52374.72;5069121;28;20493;-73
2022/10/31 03:59:14;;;;;;;;;;;;;;;-144.99;100.00;52342.09;5069439;28;20040;-73
2022/10/31 04:01:45;;;;;;;;;;;;;;;-144.99;100.00;52395.09;5067929;28;20456;-72
2022/10/31 04:04:11;;;;;;;;;;;;;;;-144.99;100.00;52344.16;5075813;22;19966;-68
2022/10/31 04:06:40;;;;;;;;;;;;;;;-144.99;100.00;52366.56;5044893;28;19960;-68
2022/10/31 04:09:08;;;;;;;;;;;;;;;-144.99;100.00;52364.53;5044759;28;20382;-67
2022/10/31 04:11:36;;;;;;;;;;;;;;;-144.99;100.00;52386.94;5046762;28;20135;-68
2022/10/31 04:14:04;;;;;;;;;;;;;;;-144.99;100.00;52370.63;5047026;28;19970;-68
2022/10/31 04:16:32;;;;;;;;;;;;;;;-144.99;100.00;52378.78;5047810;28;19976;-67
2022/10/31 04:18:59;;;;;;;;;;;;;;;-144.99;100.00;52407.31;5044351;28;20453;-68
2022/10/31 04:21:29;;;;;;;;;;;;;;;-144.99;100.00;52386.94;5048428;28;19953;-65
2022/10/31 04:23:55;;;;;;;;;;;;;;;-144.99;100.00;52382.88;5045740;28;20781;-63
2022/10/31 04:26:22;;;;;;;;;;;;;;;-144.99;100.00;52407.31;5047930;28;19944;-65
2022/10/31 04:28:48;;;;;;;;;;;;;;;-144.99;100.00;52325.81;5047647;28;19931;-64
2022/10/31 04:31:15;;;;;;;;;;;;;;;-144.99;100.00;52378.78;5047506;28;19956;-63
2022/10/31 04:33:42;;;;;;;;;;;;;;;-144.99;100.00;52358.41;5047121;28;20389;-65
2022/10/31 04:36:09;;;;;;;;;;;;;;;-144.99;100.00;52354.34;5046900;28;20320;-67
2022/10/31 04:38:35;;;;;;;;;;;;;;;-144.99;100.00;52317.66;5044567;28;19955;-66
2022/10/31 04:41:02;;;;;;;;;;;;;;;-144.99;100.00;52370.63;5048079;28;19974;-66
2022/10/31 04:43:28;;;;;;;;;;;;;;;-144.99;100.00;52366.56;5046790;28;19931;-66
2022/10/31 04:45:54;;;;;;;;;;;;;;;-144.99;100.00;52378.78;5046127;28;20564;-66
2022/10/31 04:48:21;;;;;;;;;;;;;;;-144.99;100.00;52378.78;5043471;28;19959;-66
2022/10/31 04:50:49;;;;;;;;;;;;;;;-144.99;100.00;52386.94;5045191;28;19960;-67
2022/10/31 04:53:15;;;;;;;;;;;;;;;-144.99;100.00;52374.72;5044648;28;20328;-65
2022/10/31 04:55:41;;;;;;;;;;;;;;;-144.99;100.00;52374.72;5046747;28;19957;-65
2022/10/31 04:58:08;;;;;;;;;;;;;;;-144.99;100.00;52407.31;5046578;28;20461;-65
2022/10/31 05:00:34;;;;;;;;;;;;;;;-144.99;100.00;52370.63;5042621;28;19958;-67
2022/10/31 05:03:01;;;;;;;;;;;;;;;-144.99;100.00;52378.78;5043837;28;19943;-66
2022/10/31 05:05:28;;;;;;;;;;;;;;;-144.99;100.00;52356.38;5045188;28;19973;-65
2022/10/31 05:07:56;;;;;;;;;;;;;;;-144.99;100.00;52360.44;5045166;28;19959;-66
2022/10/31 05:10:24;;;;;;;;;;;;;;;-144.99;100.00;52358.41;5047701;28;19951;-66
2022/10/31 05:12:51;;;;;;;;;;;;;;;-144.99;100.00;52370.63;5046871;28;19935;-66
2022/10/31 05:15:18;;;;;;;;;;;;;;;-144.99;100.00;52395.09;5046490;28;20398;-66
2022/10/31 05:17:45;;;;;;;;;;;;;;;-144.99;100.00;52397.13;5046569;28;20309;-66
2022/10/31 05:20:11;;;;;;;;;;;;;;;-144.99;100.00;52340.06;5045720;28;19975;-67
2022/10/31 05:22:38;;;;;;;;;;;;;;;-144.99;100.00;52391.03;5041154;28;19931;-67
2022/10/31 05:25:06;;;;;;;;;;;;;;;-144.99;100.00;52399.19;5043823;28;19929;-68
2022/10/31 05:27:32;;;;;;;;;;;;;;;-144.99;100.00;52366.56;5043695;28;20466;-63
2022/10/31 05:29:59;;;;;;;;;;;;;;;-144.99;100.00;52354.34;5043985;28;19960;-64
2022/10/31 05:32:25;;;;;;;;;;;;;;;-144.99;100.00;52338.03;5040891;28;19937;-64
2022/10/31 05:34:51;;;;;;;;;;;;;;;-144.99;100.00;52395.09;5040253;28;19937;-64
2022/10/31 05:37:18;;;;;;;;;;;;;;;-144.99;100.00;52374.72;5042927;28;19952;-65
2022/10/31 05:39:44;;;;;;;;;;;;;;;-144.99;100.00;52403.25;5045110;28;20034;-64
2022/10/31 05:42:12;;;;;;;;;;;;;;;-144.99;100.00;52350.25;5044300;28;19936;-65
2022/10/31 05:44:38;;;;;;;;;;;;;;;-144.99;100.00;52370.63;5042945;28;19945;-65
2022/10/31 05:47:05;;;;;;;;;;;;;;;-144.99;100.00;52386.94;5040341;28;20108;-64
2022/10/31 05:49:32;;;;;;;;;;;;;;;-144.99;100.00;52354.34;5048873;28;19936;-65
2022/10/31 05:51:58;;;;;;;;;;;;;;;-144.99;100.00;52362.50;5046945;28;20122;-63
2022/10/31 05:54:25;;;;;;;;;;;;;;;-144.99;100.00;52362.50;5046336;28;19924;-65
2022/10/31 05:56:51;;;;;;;;;;;;;;;-144.99;100.00;52376.75;5046031;28;19935;-64
2022/10/31 05:59:19;;;;;;;;;;;;;;;-144.99;100.00;52362.50;5042923;28;20468;-63
2022/10/31 06:01:45;;;;;;;;;;;;;;;-144.99;100.00;52378.78;5041572;28;19965;-62
2022/10/31 06:04:12;;;;;;;;;;;;;;;-144.99;100.00;52350.25;5043299;28;19944;-64
2022/10/31 06:06:38;;;;;;;;;;;;;;;-144.99;100.00;52354.34;5042190;28;19946;-64
2022/10/31 06:09:05;;;;;;;;;;;;;;;-144.99;100.00;52368.59;5045947;28;19975;-63
2022/10/31 06:11:31;;;;;;;;;;;;;;;-144.99;100.00;52342.09;5043873;28;19954;-67
2022/10/31 06:13:57;;;;;;;;;;;;;;;-144.99;100.00;52391.03;5041468;28;20366;-65
2022/10/31 06:16:25;;;;;;;;;;;;;;;-144.99;100.00;52342.09;5040598;28;20134;-64
2022/10/31 06:18:51;;;;;;;;;;;;;;;-144.99;100.00;52358.41;5040989;28;19946;-60
2022/10/31 06:21:18;;;;;;;;;;;;;;;-144.99;100.00;52350.25;5042021;28;20295;-61
2022/10/31 06:23:44;;;;;;;;;;;;;;;-144.99;100.00;52378.78;5041379;28;20429;-61
2022/10/31 06:26:11;;;;;;;;;;;;;;;-144.99;100.00;52395.09;5043374;28;19949;-62
2022/10/31 06:28:37;;;;;;;;;;;;;;;-144.99;100.00;52370.63;5042441;28;20417;-61
2022/10/31 06:31:03;;;;;;;;;;;;;;;-144.99;100.00;52370.63;5044917;28;19929;-63
2022/10/31 06:33:31;;;;;;;;;;;;;;;-144.99;100.00;52358.41;5048616;28;20436;-67
2022/10/31 06:35:58;;;;;;;;;;;;;;;-144.99;100.00;52374.72;5048958;28;19968;-67
2022/10/31 06:38:26;;;;;;;;;;;;;;;-144.99;100.00;52388.97;5045521;28;19945;-66
2022/10/31 06:40:52;;;;;;;;;;;;;;;-144.99;100.00;52378.78;5044478;28;19971;-67
2022/10/31 06:43:18;;;;;;;;;;;;;;;-144.99;100.00;52384.91;5044509;28;19941;-66
2022/10/31 06:45:45;;;;;;;;;;;;;;;-144.99;100.00;52354.34;5039968;28;19937;-67
2022/10/31 06:48:11;;;;;;;;;;;;;;;-144.99;100.00;52374.72;5044520;28;19955;-64
2022/10/31 06:50:39;;;;;;;;;;;;;;;-144.99;100.00;52395.09;5043607;28;19970;-64
2022/10/31 06:53:05;;;;;;;;;;;;;;;-144.99;100.00;52352.28;5044833;28;20357;-65
2022/10/31 06:55:32;;;;;;;;;;;;;;;-144.99;100.00;52370.63;5048313;28;19939;-65
2022/10/31 06:57:59;;;;;;;;;;;;;;;-144.99;100.00;52378.78;5047784;28;20316;-66
2022/10/31 07:00:27;;;;;;;;;;;;;;;-144.99;100.00;52354.34;5045782;28;19956;-66
2022/10/31 07:02:54;;;;;;;;;;;;;;;-144.99;100.00;52378.78;5046623;28;20388;-64
2022/10/31 07:05:20;;;;;;;;;;;;;;;-144.99;100.00;52382.88;5044943;28;20416;-67
2022/10/31 07:07:48;;;;;;;;;;;;;;;-144.99;100.00;52350.25;5045690;28;19952;-67
2022/10/31 07:10:14;;;;;;;;;;;;;;;-144.99;100.00;52362.50;5050021;28;20437;-66
2022/10/31 07:12:41;;;;;;;;;;;;;;;-144.99;100.00;52386.94;5050467;28;19950;-64
2022/10/31 07:15:08;;;;;;;;;;;;;;;-144.99;100.00;52352.28;5046830;28;20313;-65
2022/10/31 07:17:34;;;;;;;;;;;;;;;-144.99;100.00;52431.78;5043173;28;19929;-65
2022/10/31 07:20:00;;;;;;;;;;;;;;;-144.99;100.00;52407.31;5039116;28;19961;-64
2022/10/31 07:22:32;;;;;;;;;;;;;;;-144.99;100.00;52366.56;5043130;28;20675;-66
2022/10/31 07:25:00;;;;;;;;;;;;;;;-144.99;100.00;52399.19;5048503;28;19944;-64
2022/10/31 07:27:27;;;;;;;;;;;;;;;-144.99;100.00;52399.19;5043707;28;20314;-65
2022/10/31 07:29:53;;;;;;;;;;;;;;;-144.99;100.00;52411.41;5044330;28;19947;-64
2022/10/31 07:32:19;;;;;;;;;;;;;;;-144.99;100.00;52386.94;5045842;28;20345;-66
2022/10/31 07:34:46;;;;;;;;;;;;;;;-144.99;100.00;52354.34;5042746;28;19976;-63
2022/10/31 07:37:12;;;;;;;;;;;;;;;-144.99;100.00;52378.78;5043424;28;19935;-64
2022/10/31 07:39:39;;;;;;;;;;;;;;;-144.99;100.00;52399.19;5042671;28;19940;-64
2022/10/31 07:42:06;;;;;;;;;;;;;;;-144.99;100.00;52386.94;5041613;28;19948;-64
2022/10/31 07:44:33;;;;;;;;;;;;;;;-144.99;100.00;52362.50;5045815;28;19947;-64
2022/10/31 07:46:59;;;;;;;;;;;;;;;-144.99;100.00;52384.91;5044995;28;19941;-64
2022/10/31 07:49:27;;;;;;;;;;;;;;;-144.99;100.00;52362.50;5045967;28;20396;-65
2022/10/31 07:51:54;;;;;;;;;;;;;;;-144.99;100.00;52393.06;5044614;28;20449;-65
2022/10/31 07:54:20;;;;;;;;;;;;;;;-144.99;100.00;52415.47;5043304;28;20642;-65
2022/10/31 07:56:47;;;;;;;;;;;;;;;-144.99;100.00;52391.03;5055615;28;19925;-69
2022/10/31 07:59:15;;;;;;;;;;;;;;;-144.99;100.00;52399.19;5066465;28;19938;-69
2022/10/31 08:01:41;;;;;;;;;;;;;;;-144.99;100.00;52409.38;5054387;28;20083;-69
2022/10/31 08:04:08;;;;;;;;;;;;;;;-144.99;100.00;52391.03;5049839;28;20388;-69
2022/10/31 08:06:35;;;;;;;;;;;;;;;-144.99;100.00;52370.63;5047176;28;20034;-70
2022/10/31 08:09:01;;;;;;;;;;;;;;;-144.99;100.00;52395.09;5043073;28;19965;-70
2022/10/31 08:11:28;;;;;;;;;;;;;;;-144.99;100.00;52419.56;5040615;28;19951;-70
2022/10/31 08:13:54;;;;;;;;;;;;;;;-144.99;100.00;52386.94;5041451;28;19944;-69
2022/10/31 08:16:22;;;;;;;;;;;;;;;-144.99;100.00;52399.19;5046115;28;20039;-70
2022/10/31 08:18:48;;;;;;;;;;;;;;;-144.99;100.00;52395.09;5044540;28;20402;-70
2022/10/31 08:21:15;;;;;;;;;;;;;;;-144.99;100.00;52378.78;5043621;28;20448;-71
2022/10/31 08:23:41;;;;;;;;;;;;;;;-144.99;100.00;52378.78;5041614;28;19953;-70
2022/10/31 08:26:08;;;;;;;;;;;;;;;-144.99;100.00;52382.88;5041414;28;19953;-71
2022/10/31 08:28:34;;;;;;;;;;;;;;;-144.99;100.00;52354.34;5051929;28;19955;-70
2022/10/31 08:31:00;;;;;;;;;;;;;;;-144.99;100.00;52386.94;5048927;28;20320;-69
2022/10/31 08:33:28;;;;;;;;;;;;;;;-144.99;100.00;52403.25;5049757;28;19947;-70
2022/10/31 08:35:55;;;;;;;;;;;;;;;-144.99;100.00;52427.72;5041541;28;19982;-67
2022/10/31 08:38:21;;;;;;;;;;;;;;;-144.99;100.00;52382.88;5052144;28;20047;-65
2022/10/31 08:40:49;;;;;;;;;;;;;;;-144.99;100.00;52378.78;5053965;28;19984;-65
2022/10/31 08:43:16;;;;;;;;;;;;;;;-144.99;100.00;52362.50;5050919;28;20459;-65
2022/10/31 08:45:43;;;;;;;;;;;;;;;-144.99;100.00;52378.78;5048458;28;19941;-65
2022/10/31 08:48:11;;;;;;;;;;;;;;;-144.99;100.00;52386.94;5050213;28;19964;-66
2022/10/31 08:50:39;;;;;;;;;;;;;;;-144.99;100.00;52366.56;5050000;28;20062;-66
2022/10/31 08:53:07;;;;;;;;;;;;;;;-144.99;100.00;52378.78;5046629;28;19951;-65
2022/10/31 08:55:34;;;;;;;;;;;;;;;-144.99;100.00;52342.09;5048768;28;19940;-65
2022/10/31 08:58:00;;;;;;;;;;;;;;;-144.99;100.00;52342.09;5057241;28;19988;-67
2022/10/31 09:00:26;;;;;;;;;;;;;;;-144.99;100.00;52391.03;5058830;28;19964;-66
2022/10/31 09:02:57;;;;;;;;;;;;;;;-144.99;100.00;52391.03;5048611;28;19990;-63
2022/10/31 09:05:24;;;;;;;;;;;;;;;-144.99;100.00;52382.88;5049374;28;20335;-69
2022/10/31 09:07:52;;;;;;;;;;;;;;;-144.99;100.00;52354.34;5047726;28;19929;-65
2022/10/31 09:10:18;;;;;;;;;;;;;;;-144.99;100.00;52358.41;5048203;28;19965;-66
2022/10/31 09:12:44;;;;;;;;;;;;;;;-144.99;100.00;52378.78;5048535;28;20215;-66
2022/10/31 09:15:11;;;;;;;;;;;;;;;-144.99;100.00;52352.28;5048818;28;19945;-65
2022/10/31 09:17:37;;;;;;;;;;;;;;;-144.99;100.00;52346.19;5048660;28;20044;-64
2022/10/31 09:20:04;;;;;;;;;;;;;;;-144.99;100.00;52362.50;5049084;28;20012;-65
2022/10/31 09:22:30;;;;;;;;;;;;;;;-144.99;100.00;52362.50;5047296;28;19938;-65
2022/10/31 09:24:58;;;;;;;;;;;;;;;-144.99;100.00;52358.41;5048512;28;19970;-65
2022/10/31 09:27:24;;;;;;;;;;;;;;;-144.99;100.00;52399.19;5047866;28;19945;-66
2022/10/31 09:29:51;;;;;;;;;;;;;;;-144.99;100.00;52311.53;5047826;28;19979;-64
2022/10/31 09:32:17;;;;;;;;;;;;;;;-144.99;100.00;52321.72;5047585;28;20299;-63
2022/10/31 09:34:43;;;;;;;;;;;;;;;-144.99;100.00;52386.94;5047862;28;19958;-64
2022/10/31 09:37:10;;;;;;;;;;;;;;;-144.99;100.00;52313.56;5046737;28;20388;-63
2022/10/31 09:39:36;;;;;;;;;;;;;;;-144.99;100.00;52313.56;5049541;28;19971;-64
2022/10/31 09:42:10;;;;;;;;;;;;;;;-144.99;100.00;52317.66;5047729;28;19954;-62
2022/10/31 09:44:44;;;;;;;;;;;;;;;-144.99;100.00;52301.34;5048475;28;19928;-63
2022/10/31 09:47:13;;;;;;;;;;;;;;;-144.99;100.00;52321.72;5046592;28;20029;-62
2022/10/31 09:49:51;;;;;;;;;;;;;;;-144.99;100.00;52368.59;5044651;28;19925;-63
2022/10/31 09:52:21;;;;;;;;;;;;;;;-144.99;100.00;52380.84;5038574;28;19951;-63
2022/10/31 09:54:52;;;;;;;;;;;;;;;-144.99;100.00;52333.94;5047928;28;20041;-63
2022/10/31 09:57:23;;;;;;;;;;;;;;;-144.99;100.00;52338.03;5055100;28;19965;-63
2022/10/31 09:59:50;;;;;;;;;;;;;;;-144.99;100.00;52313.56;5052156;28;19945;-63
2022/10/31 10:02:21;;;;;;;;;;;;;;;-144.99;100.00;52370.63;5034832;28;20057;-62
2022/10/31 10:04:51;;;;;;;;;;;;;;;-144.99;100.00;52354.34;5048301;28;20033;-63
2022/10/31 10:07:22;;;;;;;;;;;;;;;-144.99;100.00;52321.72;5046319;28;19954;-63
2022/10/31 10:09:48;;;;;;;;;;;;;;;-144.99;100.00;52350.25;5051657;28;19961;-64
2022/10/31 10:12:20;;;;;;;;;;;;;;;-144.99;100.00;52325.81;5051776;28;19951;-63
2022/10/31 10:15:01;;;;;;;;;;;;;;;-144.99;100.00;52309.50;5047812;28;20394;-63
2022/10/31 10:17:32;;;;;;;;;;;;;;;-144.99;100.00;52374.72;5043786;28;20336;-62
2022/10/31 10:20:09;;;;;;;;;;;;;;;-144.99;100.00;52350.25;5038911;28;19966;-62
2022/10/31 10:22:39;;;;;;;;;;;;;;;-144.99;100.00;52338.03;5049868;28;20035;-63
2022/10/31 10:25:14;;;;;;;;;;;;;;;-144.99;100.00;52325.81;5048921;28;19946;-63
2022/10/31 10:27:47;;;;;;;;;;;;;;;-144.99;100.00;52305.41;5051245;28;19950;-62
2022/10/31 10:30:17;;;;;;;;;;;;;;;-144.99;100.00;52362.50;5051624;28;20003;-63
2022/10/31 10:32:46;;;;;;;;;;;;;;;-144.99;100.00;52325.81;5050750;28;19951;-64
2022/10/31 10:35:18;;;;;;;;;;;;;;;-144.99;100.00;52329.88;5051852;28;19945;-62
2022/10/31 10:37:45;;;;;;;;;;;;;;;-144.99;100.00;52333.94;5050085;28;19966;-62
2022/10/31 10:40:15;;;;;;;;;;;;;;;-144.99;100.00;52358.41;5051422;28;20468;-61
2022/10/31 10:48:16;;;;;;;;;;;;;;;-144.99;100.00;52354.34;5041878;28;20415;-62
2022/10/31 10:50:45;;;;;;;;;;;;;;;-144.99;100.00;52325.81;5052549;28;20427;-62
2022/10/31 10:53:21;;;;;;;;;;;;;;;-144.99;100.00;52301.34;5051080;28;19967;-62
2022/10/31 10:55:51;;;;;;;;;;;;;;;-144.99;100.00;52360.44;5054933;28;20376;-62
2022/10/31 10:58:18;;;;;;;;;;;;;;;-144.99;100.00;52364.53;5059054;28;20024;-62
2022/10/31 11:00:47;;;;;;;;;;;;;;;-144.99;100.00;52340.06;5055967;28;19963;-62
2022/10/31 11:03:14;;;;;;;;;;;;;;;-144.99;100.00;52342.09;5048082;28;19947;-62
2022/10/31 11:05:44;;;;;;;;;;;;;;;-144.99;100.00;52313.56;5051097;28;19940;-63
2022/10/31 11:08:11;;;;;;;;;;;;;;;-144.99;100.00;52358.41;5049227;28;19943;-63
2022/10/31 11:10:38;;;;;;;;;;;;;;;-144.99;100.00;52333.94;5049971;28;20356;-62
2022/10/31 11:13:07;;;;;;;;;;;;;;;-144.99;100.00;52301.34;5049140;28;19949;-63
2022/10/31 11:15:36;;;;;;;;;;;;;;;-144.99;100.00;52374.72;5051280;28;19951;-62
2022/10/31 11:18:04;;;;;;;;;;;;;;;-144.99;100.00;52372.69;5050392;28;19953;-62
2022/10/31 11:20:32;;;;;;;;;;;;;;;-144.99;100.00;52352.28;5050002;28;20036;-62
2022/10/31 11:23:03;;;;;;;;;;;;;;;-144.99;100.00;52338.03;5048657;28;20033;-65
2022/10/31 11:25:29;;;;;;;;;;;;;;;-144.99;100.00;52374.72;5042692;28;19941;-62
2022/10/31 11:28:05;;;;;;;;;;;;;;;-144.99;100.00;52333.94;5050514;28;19961;-62
2022/10/31 11:30:42;;;;;;;;;;;;;;;-144.99;100.00;52317.66;5050674;28;20004;-63
2022/10/31 11:33:17;;;;;;;;;;;;;;;-144.99;99.86;52362.50;5049534;28;19950;-65
2022/10/31 11:35:43;;;;;;;;;;;;;;;-144.99;98.16;52342.09;5043999;28;19973;-63
2022/10/31 11:38:16;;;;;;;;;;;;;;;-144.99;97.88;52380.84;5050502;28;19945;-63
2022/10/31 11:40:51;;;;;;;;;;;;;;;-144.99;96.87;52325.81;5051227;28;19960;-63
2022/10/31 11:43:19;;;;;;;;;;;;;;;-144.99;95.94;52378.78;5050937;28;20413;-62
2022/10/31 11:45:45;;;;;;;;;;;;;;;-144.99;95.32;52338.03;5049584;28;19938;-64
2022/10/31 11:48:17;;;;;;;;;;;;;;;-144.99;94.90;52323.75;5049499;28;19967;-62
2022/10/31 11:50:48;;;;;;;;;;;;;;;-144.99;94.41;52315.59;5049461;28;20012;-63
2022/10/31 11:53:16;;;;;;;;;;;;;;;-144.99;94.01;52370.63;5049611;28;19945;-62
2022/10/31 11:55:42;;;;;;;;;;;;;;;-144.99;94.06;52344.16;5053597;28;19939;-63
2022/10/31 11:58:20;;;;;;;;;;;;;;;-144.99;93.86;52333.94;5053247;28;19941;-63
2022/10/31 12:00:49;;;;;;;;;;;;;;;-144.99;92.69;52362.50;5049212;28;19952;-63
2022/10/31 12:03:24;;;;;;;;;;;;;;;-144.99;92.20;52362.50;5048556;28;19999;-64
2022/10/31 12:05:54;;;;;;;;;;;;;;;-144.99;90.23;52323.75;5049820;28;19964;-63
2022/10/31 12:08:21;;;;;;;;;;;;;;;-144.99;88.34;52358.41;5047448;28;19967;-62
2022/10/31 12:10:52;;;;;;;;;;;;;;;-144.99;87.62;52338.03;5049006;28;19966;-63
2022/10/31 12:13:29;;;;;;;;;;;;;;;-144.99;86.98;52331.91;5047683;28;19951;-64
2022/10/31 12:16:00;;;;;;;;;;;;;;;-144.99;88.78;52311.53;5049296;28;19958;-64
2022/10/31 12:18:36;;;;;;;;;;;;;;;-144.99;90.23;52364.53;5048658;28;19978;-66
2022/10/31 12:21:11;;;;;;;;;;;;;;;-144.99;90.90;52358.41;5049125;28;19925;-69
2022/10/31 12:23:44;;;;;;;;;;;;;;;-144.99;91.74;52325.81;5040547;28;20012;-70
2022/10/31 12:26:16;;;;;;;;;;;;;;;-144.99;91.40;52354.34;5049462;28;20044;-70
2022/10/31 12:28:51;;;;;;;;;;;;;;;-144.99;91.38;52364.53;5049347;28;19947;-69